sensor_id;sensor_type;location;lat;lon;timestamp;pressure;altitude;pressure_sealevel;temperature;humidity
64844;BME280;51310;52.198;5.422;2023-11-21T00:00:19;100900.19;;;6.49;100.00
64844;BME280;51310;52.198;5.422;2023-11-21T00:02:45;100895.94;;;6.45;100.00
64844;BME280;51310;52.198;5.422;2023-11-21T00:05:13;100889.06;;;6.41;100.00
64844;BME280;51310;52.198;5.422;2023-11-21T00:07:41;100910.88;;;6.47;100.00
64844;BME280;51310;52.198;5.422;2023-11-21T00:10:08;100905.72;;;6.44;100.00
64844;BME280;51310;52.198;5.422;2023-11-21T00:12:36;100919.63;;;6.50;100.00
64844;BME280;51310;52.198;5.422;2023-11-21T00:15:03;100919.63;;;6.50;100.00
64844;BME280;51310;52.198;5.422;2023-11-21T00:17:37;100910.94;;;6.46;100.00
64844;BME280;51310;52.198;5.422;2023-11-21T00:20:05;100925.94;;;6.47;100.00
64844;BME280;51310;52.198;5.422;2023-11-21T00:22:35;100924.94;;;6.50;100.00
64844;BME280;51310;52.198;5.422;2023-11-21T00:25:02;100924.09;;;6.49;100.00
64844;BME280;51310;52.198;5.422;2023-11-21T00:27:31;100922.09;;;6.54;100.00
64844;BME280;51310;52.198;5.422;2023-11-21T00:29:57;100920.97;;;6.60;100.00
64844;BME280;51310;52.198;5.422;2023-11-21T00:32:23;100928.41;;;6.52;100.00
64844;BME280;51310;52.198;5.422;2023-11-21T00:34:48;100905.19;;;6.36;100.00
64844;BME280;51310;52.198;5.422;2023-11-21T00:37:14;100918.25;;;6.41;100.00
64844;BME280;51310;52.198;5.422;2023-11-21T00:39:40;100915.81;;;6.36;100.00
64844;BME280;51310;52.198;5.422;2023-11-21T00:42:07;100921.75;;;6.41;100.00
64844;BME280;51310;52.198;5.422;2023-11-21T00:44:34;100918.88;;;6.27;100.00
64844;BME280;51310;52.198;5.422;2023-11-21T00:47:03;100934.53;;;6.33;100.00
64844;BME280;51310;52.198;5.422;2023-11-21T00:49:29;100910.38;;;6.19;100.00
64844;BME280;51310;52.198;5.422;2023-11-21T00:51:55;100924.38;;;6.22;100.00
64844;BME280;51310;52.198;5.422;2023-11-21T00:54:23;100946.47;;;6.23;100.00
64844;BME280;51310;52.198;5.422;2023-11-21T00:56:49;100932.94;;;6.29;100.00
64844;BME280;51310;52.198;5.422;2023-11-21T00:59:15;100921.66;;;6.24;100.00
64844;BME280;51310;52.198;5.422;2023-11-21T01:01:41;100937.19;;;6.33;100.00
64844;BME280;51310;52.198;5.422;2023-11-21T01:04:07;100930.22;;;6.31;100.00
64844;BME280;51310;52.198;5.422;2023-11-21T01:06:33;100953.31;;;6.49;100.00
64844;BME280;51310;52.198;5.422;2023-11-21T01:08:59;100941.72;;;6.50;100.00
64844;BME280;51310;52.198;5.422;2023-11-21T01:11:25;100952.88;;;6.58;100.00
64844;BME280;51310;52.198;5.422;2023-11-21T01:13:51;100959.78;;;6.62;100.00
64844;BME280;51310;52.198;5.422;2023-11-21T01:16:18;100950.28;;;6.57;100.00
64844;BME280;51310;52.198;5.422;2023-11-21T01:18:44;100944.06;;;6.58;100.00
64844;BME280;51310;52.198;5.422;2023-11-21T01:21:10;100949.22;;;6.61;100.00
64844;BME280;51310;52.198;5.422;2023-11-21T01:23:36;100961.19;;;6.71;100.00
64844;BME280;51310;52.198;5.422;2023-11-21T01:26:02;100940.19;;;6.65;100.00
64844;BME280;51310;52.198;5.422;2023-11-21T01:28:28;100956.72;;;6.72;100.00
64844;BME280;51310;52.198;5.422;2023-11-21T01:30:54;100961.03;;;6.74;100.00
64844;BME280;51310;52.198;5.422;2023-11-21T01:33:22;100951.47;;;6.70;100.00
64844;BME280;51310;52.198;5.422;2023-11-21T01:35:50;100968.44;;;6.86;100.00
64844;BME280;51310;52.198;5.422;2023-11-21T01:38:18;100966.50;;;6.90;100.00
64844;BME280;51310;52.198;5.422;2023-11-21T01:40:44;100969.69;;;6.98;100.00
64844;BME280;51310;52.198;5.422;2023-11-21T01:43:10;100952.06;;;6.96;100.00
64844;BME280;51310;52.198;5.422;2023-11-21T01:45:36;100940.44;;;6.98;100.00
64844;BME280;51310;52.198;5.422;2023-11-21T01:48:02;100970.09;;;7.08;100.00
64844;BME280;51310;52.198;5.422;2023-11-21T01:50:29;100964.38;;;6.98;100.00
64844;BME280;51310;52.198;5.422;2023-11-21T01:52:56;100973.72;;;7.07;100.00
64844;BME280;51310;52.198;5.422;2023-11-21T01:55:22;100985.78;;;7.14;100.00
64844;BME280;51310;52.198;5.422;2023-11-21T01:57:48;100968.25;;;7.10;100.00
64844;BME280;51310;52.198;5.422;2023-11-21T02:00:14;100968.88;;;7.15;100.00
64844;BME280;51310;52.198;5.422;2023-11-21T02:02:48;100980.03;;;7.23;100.00
64844;BME280;51310;52.198;5.422;2023-11-21T02:05:18;100990.50;;;7.26;100.00
64844;BME280;51310;52.198;5.422;2023-11-21T02:07:46;100994.91;;;7.27;100.00
64844;BME280;51310;52.198;5.422;2023-11-21T02:10:14;101006.97;;;7.35;100.00
64844;BME280;51310;52.198;5.422;2023-11-21T02:12:42;100995.03;;;7.24;100.00
64844;BME280;51310;52.198;5.422;2023-11-21T02:15:18;100994.81;;;7.29;100.00
64844;BME280;51310;52.198;5.422;2023-11-21T02:17:50;101002.88;;;7.27;100.00
64844;BME280;51310;52.198;5.422;2023-11-21T02:20:18;101016.66;;;7.36;100.00
64844;BME280;51310;52.198;5.422;2023-11-21T02:22:53;101016.53;;;7.39;100.00
64844;BME280;51310;52.198;5.422;2023-11-21T02:25:29;101002.88;;;7.27;100.00
64844;BME280;51310;52.198;5.422;2023-11-21T02:28:02;101019.25;;;7.37;100.00
64844;BME280;51310;52.198;5.422;2023-11-21T02:30:29;101012.41;;;7.32;100.00
64844;BME280;51310;52.198;5.422;2023-11-21T02:32:57;101020.84;;;7.41;100.00
64844;BME280;51310;52.198;5.422;2023-11-21T02:35:24;101019.19;;;7.39;100.00
64844;BME280;51310;52.198;5.422;2023-11-21T02:37:54;101010.50;;;7.35;100.00
64844;BME280;51310;52.198;5.422;2023-11-21T02:40:20;101026.97;;;7.43;100.00
64844;BME280;51310;52.198;5.422;2023-11-21T02:42:50;101025.00;;;7.47;100.00
64844;BME280;51310;52.198;5.422;2023-11-21T02:45:17;101028.44;;;7.49;100.00
64844;BME280;51310;52.198;5.422;2023-11-21T02:47:46;101019.63;;;7.48;100.00
64844;BME280;51310;52.198;5.422;2023-11-21T02:50:13;101005.09;;;7.37;100.00
64844;BME280;51310;52.198;5.422;2023-11-21T02:52:39;101021.41;;;7.48;100.00
64844;BME280;51310;52.198;5.422;2023-11-21T02:55:08;101032.13;;;7.46;100.00
64844;BME280;51310;52.198;5.422;2023-11-21T02:57:34;101013.88;;;7.39;100.00
64844;BME280;51310;52.198;5.422;2023-11-21T03:00:00;101026.00;;;7.44;100.00
64844;BME280;51310;52.198;5.422;2023-11-21T03:02:26;101007.78;;;7.37;100.00
64844;BME280;51310;52.198;5.422;2023-11-21T03:04:52;101027.03;;;7.42;100.00
64844;BME280;51310;52.198;5.422;2023-11-21T03:07:18;101027.81;;;7.44;100.00
64844;BME280;51310;52.198;5.422;2023-11-21T03:09:47;101026.00;;;7.44;100.00
64844;BME280;51310;52.198;5.422;2023-11-21T03:12:13;101020.91;;;7.40;100.00
64844;BME280;51310;52.198;5.422;2023-11-21T03:14:42;101024.56;;;7.37;100.00
64844;BME280;51310;52.198;5.422;2023-11-21T03:17:08;101005.66;;;7.24;100.00
64844;BME280;51310;52.198;5.422;2023-11-21T03:19:34;101009.19;;;7.25;100.00
64844;BME280;51310;52.198;5.422;2023-11-21T03:21:59;101014.00;;;7.17;100.00
64844;BME280;51310;52.198;5.422;2023-11-21T03:24:25;101003.88;;;7.06;100.00
64844;BME280;51310;52.198;5.422;2023-11-21T03:26:52;101021.41;;;7.10;100.00
64844;BME280;51310;52.198;5.422;2023-11-21T03:29:18;101017.94;;;7.08;100.00
64844;BME280;51310;52.198;5.422;2023-11-21T03:31:44;101017.16;;;7.06;100.00
64844;BME280;51310;52.198;5.422;2023-11-21T03:34:16;101018.09;;;7.05;100.00
64844;BME280;51310;52.198;5.422;2023-11-21T03:36:53;101022.31;;;7.09;100.00
64844;BME280;51310;52.198;5.422;2023-11-21T03:39:20;101033.19;;;7.23;100.00
64844;BME280;51310;52.198;5.422;2023-11-21T03:41:47;101026.81;;;7.27;100.00
64844;BME280;51310;52.198;5.422;2023-11-21T03:44:14;101042.97;;;7.42;100.00
64844;BME280;51310;52.198;5.422;2023-11-21T03:46:40;101029.69;;;7.42;100.00
64844;BME280;51310;52.198;5.422;2023-11-21T03:49:06;101045.19;;;7.51;100.00
64844;BME280;51310;52.198;5.422;2023-11-21T03:51:33;101024.53;;;7.39;100.00
64844;BME280;51310;52.198;5.422;2023-11-21T03:53:59;101054.72;;;7.57;100.00
64844;BME280;51310;52.198;5.422;2023-11-21T03:56:25;101053.91;;;7.55;100.00
64844;BME280;51310;52.198;5.422;2023-11-21T03:58:51;101060.78;;;7.59;100.00
64844;BME280;51310;52.198;5.422;2023-11-21T04:01:24;101045.19;;;7.51;100.00
64844;BME280;51310;52.198;5.422;2023-11-21T04:03:51;101050.25;;;7.57;100.00
64844;BME280;51310;52.198;5.422;2023-11-21T04:06:17;101073.16;;;7.60;100.00
64844;BME280;51310;52.198;5.422;2023-11-21T04:08:44;101051.47;;;7.50;100.00
64844;BME280;51310;52.198;5.422;2023-11-21T04:11:11;101075.75;;;7.61;100.00
64844;BME280;51310;52.198;5.422;2023-11-21T04:13:41;101058.34;;;7.54;100.00
64844;BME280;51310;52.198;5.422;2023-11-21T04:16:08;101058.22;;;7.57;100.00
64844;BME280;51310;52.198;5.422;2023-11-21T04:18:37;101072.00;;;7.65;100.00
64844;BME280;51310;52.198;5.422;2023-11-21T04:21:05;101085.81;;;7.74;100.00
64844;BME280;51310;52.198;5.422;2023-11-21T04:23:32;101069.66;;;7.59;100.00
64844;BME280;51310;52.198;5.422;2023-11-21T04:25:58;101087.69;;;7.71;100.00
64844;BME280;51310;52.198;5.422;2023-11-21T04:28:24;101105.50;;;7.69;100.00
64844;BME280;51310;52.198;5.422;2023-11-21T04:30:50;101081.72;;;7.66;100.00
64844;BME280;51310;52.198;5.422;2023-11-21T04:33:17;101082.00;;;7.60;100.00
64844;BME280;51310;52.198;5.422;2023-11-21T04:35:42;101092.31;;;7.68;100.00
64844;BME280;51310;52.198;5.422;2023-11-21T04:38:08;101100.34;;;7.66;100.00
64844;BME280;51310;52.198;5.422;2023-11-21T04:40:34;101095.31;;;7.60;100.00
64844;BME280;51310;52.198;5.422;2023-11-21T04:43:00;101103.78;;;7.68;100.00
64844;BME280;51310;52.198;5.422;2023-11-21T04:45:27;101109.75;;;7.74;100.00
64844;BME280;51310;52.198;5.422;2023-11-21T04:47:52;101096.88;;;7.64;100.00
64844;BME280;51310;52.198;5.422;2023-11-21T04:50:18;101116.09;;;7.71;100.00
64844;BME280;51310;52.198;5.422;2023-11-21T04:52:45;101112.56;;;7.70;100.00
64844;BME280;51310;52.198;5.422;2023-11-21T04:55:11;101095.31;;;7.60;100.00
64844;BME280;51310;52.198;5.422;2023-11-21T04:57:37;101102.84;;;7.69;100.00
64844;BME280;51310;52.198;5.422;2023-11-21T05:00:04;101108.09;;;7.71;100.00
64844;BME280;51310;52.198;5.422;2023-11-21T05:02:32;101117.59;;;7.77;100.00
64844;BME280;51310;52.198;5.422;2023-11-21T05:05:00;101102.06;;;7.67;100.00
64844;BME280;51310;52.198;5.422;2023-11-21T05:07:26;101120.91;;;7.82;100.00
64844;BME280;51310;52.198;5.422;2023-11-21T05:09:55;101116.72;;;7.76;100.00
64844;BME280;51310;52.198;5.422;2023-11-21T05:12:22;101133.28;;;7.83;100.00
64844;BME280;51310;52.198;5.422;2023-11-21T05:14:49;101118.69;;;7.72;100.00
64844;BME280;51310;52.198;5.422;2023-11-21T05:17:15;101138.59;;;7.83;100.00
64844;BME280;51310;52.198;5.422;2023-11-21T05:19:42;101137.00;;;7.79;100.00
64844;BME280;51310;52.198;5.422;2023-11-21T05:22:08;101141.25;;;7.83;100.00
64844;BME280;51310;52.198;5.422;2023-11-21T05:24:34;101132.47;;;7.81;100.00
64844;BME280;51310;52.198;5.422;2023-11-21T05:27:00;101130.75;;;7.80;100.00
64844;BME280;51310;52.198;5.422;2023-11-21T05:29:26;101148.09;;;7.88;100.00
64844;BME280;51310;52.198;5.422;2023-11-21T05:31:52;101134.28;;;7.80;100.00
64844;BME280;51310;52.198;5.422;2023-11-21T05:34:18;101154.00;;;7.95;100.00
64844;BME280;51310;52.198;5.422;2023-11-21T05:36:46;101144.75;;;7.83;100.00
64844;BME280;51310;52.198;5.422;2023-11-21T05:39:13;101142.31;;;7.79;100.00
64844;BME280;51310;52.198;5.422;2023-11-21T05:41:39;101164.66;;;7.95;100.00
64844;BME280;51310;52.198;5.422;2023-11-21T05:44:05;101153.69;;;7.82;100.00
64844;BME280;51310;52.198;5.422;2023-11-21T05:46:31;101150.03;;;7.85;100.00
64844;BME280;51310;52.198;5.422;2023-11-21T05:48:57;101147.38;;;7.85;100.00
64844;BME280;51310;52.198;5.422;2023-11-21T05:51:23;101160.19;;;7.96;100.00
64844;BME280;51310;52.198;5.422;2023-11-21T05:53:50;101167.94;;;8.00;100.00
64844;BME280;51310;52.198;5.422;2023-11-21T05:56:16;101162.91;;;7.94;100.00
64844;BME280;51310;52.198;5.422;2023-11-21T05:58:43;101174.97;;;8.01;100.00
64844;BME280;51310;52.198;5.422;2023-11-21T06:01:09;101164.66;;;7.95;100.00
64844;BME280;51310;52.198;5.422;2023-11-21T06:03:39;101188.16;;;8.04;100.00
64844;BME280;51310;52.198;5.422;2023-11-21T06:06:05;101188.75;;;8.11;100.00
64844;BME280;51310;52.198;5.422;2023-11-21T06:08:32;101183.31;;;8.12;100.00
64844;BME280;51310;52.198;5.422;2023-11-21T06:10:58;101193.84;;;8.16;100.00
64844;BME280;51310;52.198;5.422;2023-11-21T06:13:24;101194.75;;;8.14;100.00
64844;BME280;51310;52.198;5.422;2023-11-21T06:15:50;101203.53;;;8.17;100.00
64844;BME280;51310;52.198;5.422;2023-11-21T06:18:17;101177.56;;;8.03;100.00
64844;BME280;51310;52.198;5.422;2023-11-21T06:20:46;101211.31;;;8.21;100.00
64844;BME280;51310;52.198;5.422;2023-11-21T06:23:12;101192.31;;;8.10;100.00
64844;BME280;51310;52.198;5.422;2023-11-21T06:25:37;101198.16;;;8.18;100.00
64844;BME280;51310;52.198;5.422;2023-11-21T06:28:04;101206.84;;;8.22;100.00
64844;BME280;51310;52.198;5.422;2023-11-21T06:30:30;101207.50;;;8.27;100.00
64844;BME280;51310;52.198;5.422;2023-11-21T06:32:56;101212.84;;;8.27;100.00
64844;BME280;51310;52.198;5.422;2023-11-21T06:35:22;101207.34;;;8.30;100.00
64844;BME280;51310;52.198;5.422;2023-11-21T06:37:48;101219.44;;;8.37;100.00
64844;BME280;51310;52.198;5.422;2023-11-21T06:40:14;101204.75;;;8.28;100.00
64844;BME280;51310;52.198;5.422;2023-11-21T06:42:41;101231.72;;;8.41;100.00
64844;BME280;51310;52.198;5.422;2023-11-21T06:45:07;101231.38;;;8.49;100.00
64844;BME280;51310;52.198;5.422;2023-11-21T06:47:36;101229.69;;;8.46;100.00
64844;BME280;51310;52.198;5.422;2023-11-21T06:50:04;101235.56;;;8.53;100.00
64844;BME280;51310;52.198;5.422;2023-11-21T06:52:30;101233.00;;;8.51;100.00
64844;BME280;51310;52.198;5.422;2023-11-21T06:54:56;101233.66;;;8.57;100.00
64844;BME280;51310;52.198;5.422;2023-11-21T06:57:25;101248.38;;;8.64;100.00
64844;BME280;51310;52.198;5.422;2023-11-21T06:59:51;101254.56;;;8.64;100.00
64844;BME280;51310;52.198;5.422;2023-11-21T07:02:17;101253.72;;;8.64;100.00
64844;BME280;51310;52.198;5.422;2023-11-21T07:04:47;101247.81;;;8.57;100.00
64844;BME280;51310;52.198;5.422;2023-11-21T07:07:13;101253.50;;;8.68;100.00
64844;BME280;51310;52.198;5.422;2023-11-21T07:09:39;101265.50;;;8.77;100.00
64844;BME280;51310;52.198;5.422;2023-11-21T07:12:05;101254.28;;;8.70;100.00
64844;BME280;51310;52.198;5.422;2023-11-21T07:14:34;101257.50;;;8.77;100.00
64844;BME280;51310;52.198;5.422;2023-11-21T07:17:00;101268.69;;;8.85;100.00
64844;BME280;51310;52.198;5.422;2023-11-21T07:19:26;101276.50;;;8.88;100.00
64844;BME280;51310;52.198;5.422;2023-11-21T07:21:52;101265.22;;;8.83;100.00
64844;BME280;51310;52.198;5.422;2023-11-21T07:24:18;101286.72;;;8.98;100.00
64844;BME280;51310;52.198;5.422;2023-11-21T07:26:44;101263.47;;;8.82;100.00
64844;BME280;51310;52.198;5.422;2023-11-21T07:29:10;101296.28;;;9.02;100.00
64844;BME280;51310;52.198;5.422;2023-11-21T07:31:37;101277.06;;;8.95;100.00
64844;BME280;51310;52.198;5.422;2023-11-21T07:34:04;101282.34;;;8.96;100.00
64844;BME280;51310;52.198;5.422;2023-11-21T07:36:29;101282.19;;;9.00;100.00
64844;BME280;51310;52.198;5.422;2023-11-21T07:38:55;101296.94;;;9.07;100.00
64844;BME280;51310;52.198;5.422;2023-11-21T07:41:21;101298.34;;;9.14;100.00
64844;BME280;51310;52.198;5.422;2023-11-21T07:43:47;101308.72;;;9.20;100.00
64844;BME280;51310;52.198;5.422;2023-11-21T07:46:14;101307.91;;;9.18;100.00
64844;BME280;51310;52.198;5.422;2023-11-21T07:48:41;101320.22;;;9.21;100.00
64844;BME280;51310;52.198;5.422;2023-11-21T07:51:09;101323.78;;;9.21;100.00
64844;BME280;51310;52.198;5.422;2023-11-21T07:53:36;101323.91;;;9.18;100.00
64844;BME280;51310;52.198;5.422;2023-11-21T07:56:06;101325.50;;;9.22;100.00
64844;BME280;51310;52.198;5.422;2023-11-21T07:58:35;101314.09;;;9.18;100.00
64844;BME280;51310;52.198;5.422;2023-11-21T08:01:05;101315.84;;;9.20;100.00
64844;BME280;51310;52.198;5.422;2023-11-21T08:03:31;101325.66;;;9.19;100.00
64844;BME280;51310;52.198;5.422;2023-11-21T08:05:58;101321.19;;;9.20;100.00
64844;BME280;51310;52.198;5.422;2023-11-21T08:08:24;101332.41;;;9.26;100.00
64844;BME280;51310;52.198;5.422;2023-11-21T08:10:51;101358.56;;;9.37;100.00
64844;BME280;51310;52.198;5.422;2023-11-21T08:13:27;101363.00;;;9.36;100.00
64844;BME280;51310;52.198;5.422;2023-11-21T08:15:56;101362.38;;;9.31;100.00
64844;BME280;51310;52.198;5.422;2023-11-21T08:18:27;101365.69;;;9.36;100.00
64844;BME280;51310;52.198;5.422;2023-11-21T08:20:54;101393.66;;;9.47;100.00
64844;BME280;51310;52.198;5.422;2023-11-21T08:23:21;101395.34;;;9.48;100.00
64844;BME280;51310;52.198;5.422;2023-11-21T08:25:51;101378.78;;;9.41;100.00
64844;BME280;51310;52.198;5.422;2023-11-21T08:28:18;101381.69;;;9.36;100.00
64844;BME280;51310;52.198;5.422;2023-11-21T08:30:47;101393.09;;;9.40;100.00
64844;BME280;51310;52.198;5.422;2023-11-21T08:33:13;101410.38;;;9.50;100.00
64844;BME280;51310;52.198;5.422;2023-11-21T08:35:39;101413.97;;;9.49;100.00
64844;BME280;51310;52.198;5.422;2023-11-21T08:38:05;101425.38;;;9.53;100.00
64844;BME280;51310;52.198;5.422;2023-11-21T08:40:31;101422.69;;;9.53;100.00
64844;BME280;51310;52.198;5.422;2023-11-21T08:42:57;101415.00;;;9.47;100.00
64844;BME280;51310;52.198;5.422;2023-11-21T08:45:25;101435.81;;;9.57;100.00
64844;BME280;51310;52.198;5.422;2023-11-21T08:47:54;101414.03;;;9.48;100.00
64844;BME280;51310;52.198;5.422;2023-11-21T08:50:20;101409.34;;;9.53;100.00
64844;BME280;51310;52.198;5.422;2023-11-21T08:52:46;101425.69;;;9.64;100.00
64844;BME280;51310;52.198;5.422;2023-11-21T08:55:13;101412.81;;;9.55;100.00
64844;BME280;51310;52.198;5.422;2023-11-21T08:57:40;101444.94;;;9.71;100.00
64844;BME280;51310;52.198;5.422;2023-11-21T09:00:09;101434.56;;;9.65;100.00
64844;BME280;51310;52.198;5.422;2023-11-21T09:02:40;101455.38;;;9.75;100.00
64844;BME280;51310;52.198;5.422;2023-11-21T09:05:13;101461.97;;;9.68;100.00
64844;BME280;51310;52.198;5.422;2023-11-21T09:07:42;101450.56;;;9.65;100.00
64844;BME280;51310;52.198;5.422;2023-11-21T09:10:08;101478.28;;;9.62;100.00
64844;BME280;51310;52.198;5.422;2023-11-21T09:12:37;101454.00;;;9.49;100.00
64844;BME280;51310;52.198;5.422;2023-11-21T09:15:05;101474.25;;;9.53;100.00
64844;BME280;51310;52.198;5.422;2023-11-21T09:17:33;101483.06;;;9.55;100.00
64844;BME280;51310;52.198;5.422;2023-11-21T09:20:00;101477.31;;;9.46;100.00
64844;BME280;51310;52.198;5.422;2023-11-21T09:22:25;101490.94;;;9.40;100.00
64844;BME280;51310;52.198;5.422;2023-11-21T09:24:52;101495.03;;;9.47;100.00
64844;BME280;51310;52.198;5.422;2023-11-21T09:27:19;101499.56;;;9.45;100.00
64844;BME280;51310;52.198;5.422;2023-11-21T09:29:45;101506.56;;;9.47;100.00
64844;BME280;51310;52.198;5.422;2023-11-21T09:32:13;101510.41;;;9.42;100.00
64844;BME280;51310;52.198;5.422;2023-11-21T09:34:44;101508.88;;;9.36;100.00
64844;BME280;51310;52.198;5.422;2023-11-21T09:37:10;101473.19;;;9.20;100.00
64844;BME280;51310;52.198;5.422;2023-11-21T09:39:36;101512.34;;;9.38;100.00
64844;BME280;51310;52.198;5.422;2023-11-21T09:42:13;101520.56;;;9.33;100.00
64844;BME280;51310;52.198;5.422;2023-11-21T09:47:55;101539.97;;;9.37;100.00
64844;BME280;51310;52.198;5.422;2023-11-21T09:50:23;101543.75;;;9.31;100.00
64844;BME280;51310;52.198;5.422;2023-11-21T09:53:21;101543.63;;;9.34;100.00
64844;BME280;51310;52.198;5.422;2023-11-21T09:55:53;101551.56;;;9.36;100.00
64844;BME280;51310;52.198;5.422;2023-11-21T09:58:21;101533.53;;;9.22;100.00
64844;BME280;51310;52.198;5.422;2023-11-21T10:00:50;101549.09;;;9.31;100.00
64844;BME280;51310;52.198;5.422;2023-11-21T10:03:18;101518.09;;;9.10;100.00
64844;BME280;51310;52.198;5.422;2023-11-21T10:05:45;101562.81;;;9.43;100.00
64844;BME280;51310;52.198;5.422;2023-11-21T10:08:13;101550.19;;;9.46;100.00
64844;BME280;51310;52.198;5.422;2023-11-21T10:10:44;101552.00;;;9.46;100.00
64844;BME280;51310;52.198;5.422;2023-11-21T10:13:13;101550.25;;;9.45;100.00
64844;BME280;51310;52.198;5.422;2023-11-21T10:15:42;101553.56;;;9.50;100.00
64844;BME280;51310;52.198;5.422;2023-11-21T10:18:14;101567.28;;;9.42;100.00
64844;BME280;51310;52.198;5.422;2023-11-21T10:20:41;101574.28;;;9.45;100.00
64844;BME280;51310;52.198;5.422;2023-11-21T10:23:09;101597.50;;;9.43;100.00
64844;BME280;51310;52.198;5.422;2023-11-21T10:25:37;101597.63;;;9.40;100.00
64844;BME280;51310;52.198;5.422;2023-11-21T10:28:04;101585.00;;;9.24;100.00
64844;BME280;51310;52.198;5.422;2023-11-21T10:30:38;101586.66;;;9.27;100.00
64844;BME280;51310;52.198;5.422;2023-11-21T10:33:05;101607.00;;;9.29;100.00
64844;BME280;51310;52.198;5.422;2023-11-21T10:35:43;101608.66;;;9.32;100.00
64844;BME280;51310;52.198;5.422;2023-11-21T10:38:13;101616.44;;;9.36;100.00
64844;BME280;51310;52.198;5.422;2023-11-21T10:40:41;101623.53;;;9.37;100.00
64844;BME280;51310;52.198;5.422;2023-11-21T10:43:09;101633.41;;;9.35;100.00
64844;BME280;51310;52.198;5.422;2023-11-21T10:45:39;101624.22;;;9.22;100.00
64844;BME280;51310;52.198;5.422;2023-11-21T10:48:10;101650.34;;;9.34;100.00
64844;BME280;51310;52.198;5.422;2023-11-21T10:50:42;101634.72;;;9.25;100.00
64844;BME280;51310;52.198;5.422;2023-11-21T10:53:10;101641.00;;;9.24;100.00
64844;BME280;51310;52.198;5.422;2023-11-21T10:55:37;101649.00;;;9.24;100.00
64844;BME280;51310;52.198;5.422;2023-11-21T10:58:04;101660.53;;;9.25;100.00
64844;BME280;51310;52.198;5.422;2023-11-21T11:00:33;101660.34;;;9.29;100.00
64844;BME280;51310;52.198;5.422;2023-11-21T11:03:00;101659.47;;;9.29;100.00
64844;BME280;51310;52.198;5.422;2023-11-21T11:05:28;101656.28;;;9.21;100.00
64844;BME280;51310;52.198;5.422;2023-11-21T11:08:11;101647.84;;;9.30;100.00
64844;BME280;51310;52.198;5.422;2023-11-21T11:10:38;101664.44;;;9.36;100.00
64844;BME280;51310;52.198;5.422;2023-11-21T11:13:04;101646.50;;;9.21;100.00
64844;BME280;51310;52.198;5.422;2023-11-21T11:15:33;101661.03;;;9.34;100.00
64844;BME280;51310;52.198;5.422;2023-11-21T11:17:59;101632.41;;;9.17;100.00
64844;BME280;51310;52.198;5.422;2023-11-21T11:20:37;101661.53;;;9.22;100.00
64844;BME280;51310;52.198;5.422;2023-11-21T11:26:36;101678.16;;;9.29;100.00
64844;BME280;51310;52.198;5.422;2023-11-21T11:39:03;101676.06;;;9.35;100.00
64844;BME280;51310;52.198;5.422;2023-11-21T11:41:31;101676.53;;;9.25;100.00
64844;BME280;51310;52.198;5.422;2023-11-21T11:44:01;101680.47;;;9.36;100.00
64844;BME280;51310;52.198;5.422;2023-11-21T11:46:44;101686.53;;;9.40;100.00
64844;BME280;51310;52.198;5.422;2023-11-21T11:49:28;101690.16;;;9.39;100.00
64844;BME280;51310;52.198;5.422;2023-11-21T11:55:00;101705.16;;;9.42;100.00
64844;BME280;51310;52.198;5.422;2023-11-21T11:57:29;101678.41;;;9.23;100.00
64844;BME280;51310;52.198;5.422;2023-11-21T12:00:17;101702.34;;;9.24;100.00
64844;BME280;51310;52.198;5.422;2023-11-21T12:03:03;101705.69;;;9.29;100.00
64844;BME280;51310;52.198;5.422;2023-11-21T12:05:32;101700.34;;;9.29;100.00
64844;BME280;51310;52.198;5.422;2023-11-21T12:08:03;101704.06;;;9.25;99.87
64844;BME280;51310;52.198;5.422;2023-11-21T12:10:34;101717.22;;;9.30;99.79
64844;BME280;51310;52.198;5.422;2023-11-21T12:13:09;101715.28;;;9.33;99.62
64844;BME280;51310;52.198;5.422;2023-11-21T12:15:38;101709.56;;;9.22;99.25
64844;BME280;51310;52.198;5.422;2023-11-21T12:18:06;101709.94;;;9.33;99.09
64844;BME280;51310;52.198;5.422;2023-11-21T12:20:32;101721.97;;;9.44;98.75
64844;BME280;51310;52.198;5.422;2023-11-21T12:23:05;101731.28;;;9.54;98.49
64844;BME280;51310;52.198;5.422;2023-11-21T12:25:31;101725.69;;;9.60;97.90
64844;BME280;51310;52.198;5.422;2023-11-21T12:28:00;101716.53;;;9.45;97.54
64844;BME280;51310;52.198;5.422;2023-11-21T12:30:31;101722.47;;;9.52;97.22
64844;BME280;51310;52.198;5.422;2023-11-21T12:32:59;101723.34;;;9.52;97.17
64844;BME280;51310;52.198;5.422;2023-11-21T12:35:28;101724.88;;;9.58;97.10
64844;BME280;51310;52.198;5.422;2023-11-21T12:37:56;101717.28;;;9.49;96.90
64844;BME280;51310;52.198;5.422;2023-11-21T12:40:26;101732.13;;;9.54;96.93
64844;BME280;51310;52.198;5.422;2023-11-21T12:42:57;101733.34;;;9.47;96.75
64844;BME280;51310;52.198;5.422;2023-11-21T12:45:28;101725.50;;;9.44;96.71
64844;BME280;51310;52.198;5.422;2023-11-21T12:50:31;101738.63;;;9.49;96.53
64844;BME280;51310;52.198;5.422;2023-11-21T12:53:11;101757.69;;;9.60;96.51
64844;BME280;51310;52.198;5.422;2023-11-21T12:55:38;101743.09;;;9.48;96.70
64844;BME280;51310;52.198;5.422;2023-11-21T12:58:09;101764.28;;;9.72;96.71
64844;BME280;51310;52.198;5.422;2023-11-21T13:00:46;101755.63;;;9.67;96.47
64844;BME280;51310;52.198;5.422;2023-11-21T13:03:15;101761.78;;;9.69;96.66
64844;BME280;51310;52.198;5.422;2023-11-21T13:05:45;101768.72;;;9.73;96.68
64844;BME280;51310;52.198;5.422;2023-11-21T13:08:14;101761.38;;;9.57;96.72
64844;BME280;51310;52.198;5.422;2023-11-21T13:10:45;101769.59;;;9.53;97.06
64844;BME280;51310;52.198;5.422;2023-11-21T13:13:14;101785.06;;;9.45;97.34
64844;BME280;51310;52.198;5.422;2023-11-21T13:18:18;101776.44;;;9.38;97.37